createdAt,value
2023-04-13T00:03:58.309Z,74.22
2023-04-13T00:09:00.896Z,74.45
2023-04-13T00:14:02.460Z,74.45
2023-04-13T00:19:04.338Z,74.89
2023-04-13T00:24:06.224Z,74.89
2023-04-13T00:29:08.160Z,74.77
2023-04-13T00:34:09.901Z,74.96
2023-04-13T00:39:11.516Z,74.89
2023-04-13T00:44:13.107Z,74.63
2023-04-13T00:49:15.313Z,74.89
2023-04-13T00:54:18.855Z,74.57
2023-04-13T00:59:21.008Z,74.68
2023-04-13T01:04:27.375Z,74.70
2023-04-13T01:09:34.978Z,74.46
2023-04-13T01:14:41.888Z,74.14
2023-04-13T01:20:14.190Z,74.06
2023-04-13T01:25:36.786Z,73.77
2023-04-13T01:30:39.429Z,73.61
2023-04-13T01:35:41.342Z,74.17
2023-04-13T01:40:48.261Z,74.30
2023-04-13T01:45:56.213Z,74.06
2023-04-13T01:51:01.513Z,74.02
2023-04-13T01:56:23.142Z,73.94
2023-04-13T02:01:30.569Z,74.32
2023-04-13T02:06:33.819Z,74.35
2023-04-13T02:11:39.467Z,74.21
2023-04-13T02:16:42.535Z,74.50
2023-04-13T02:21:44.796Z,74.85
2023-04-13T02:26:46.433Z,75.11
2023-04-13T02:31:48.921Z,74.64
2023-04-13T02:36:50.566Z,74.43
2023-04-13T02:41:52.204Z,74.27
2023-04-13T02:46:56.776Z,73.77
2023-04-13T02:51:59.354Z,73.35
2023-04-13T02:57:22.437Z,73.84
2023-04-13T03:02:29.285Z,73.45
2023-04-13T03:07:31.968Z,73.55
2023-04-13T03:12:34.036Z,73.32
2023-04-13T03:17:40.362Z,73.43
2023-04-13T03:22:45.180Z,73.66
2023-04-13T03:27:47.070Z,73.38
2023-04-13T03:32:52.411Z,73.03
2023-04-13T03:37:57.449Z,71.09
2023-04-13T03:43:10.427Z,69.96
2023-04-13T03:48:17.272Z,69.27
2023-04-13T03:53:18.871Z,68.59
2023-04-13T03:58:22.268Z,67.60
2023-04-13T04:03:25.715Z,67.53
2023-04-13T04:08:41.178Z,67.39
2023-04-13T04:13:53.180Z,67.85
2023-04-13T04:18:55.341Z,67.92
2023-04-13T04:23:57.957Z,67.98
2023-04-13T04:29:02.112Z,68.14
2023-04-13T04:34:05.365Z,68.29
2023-04-13T04:39:10.084Z,68.45
2023-04-13T04:44:25.289Z,68.60
2023-04-13T04:49:28.572Z,68.54
2023-04-13T04:54:32.863Z,68.83
2023-04-13T04:59:34.886Z,69.03
2023-04-13T05:04:38.760Z,69.31
2023-04-13T05:09:41.083Z,69.30
2023-04-13T05:14:42.846Z,69.11
2023-04-13T05:19:45.894Z,69.38
2023-04-13T05:25:06.504Z,68.79
2023-04-13T05:30:09.461Z,69.39
2023-04-13T05:35:13.774Z,68.02
2023-04-13T05:40:16.984Z,66.77
2023-04-13T05:45:18.679Z,65.46
2023-04-13T05:50:33.670Z,64.28
2023-04-13T05:55:35.740Z,64.13
2023-04-13T06:00:40.006Z,63.65
2023-04-13T06:05:46.916Z,63.03
2023-04-13T06:10:49.884Z,62.86
2023-04-13T06:15:52.842Z,62.44
2023-04-13T06:20:55.097Z,61.81
2023-04-13T06:25:57.650Z,61.71
2023-04-13T06:31:13.830Z,60.95
2023-04-13T06:36:18.237Z,61.06
2023-04-13T06:41:20.394Z,60.64
2023-04-13T06:46:23.818Z,61.24
2023-04-13T06:51:28.129Z,60.63
2023-04-13T06:56:32.317Z,60.94
2023-04-13T07:01:34.659Z,60.60
2023-04-13T07:06:36.765Z,60.54
2023-04-13T07:11:38.451Z,60.07
2023-04-13T07:16:40.247Z,59.65
2023-04-13T07:21:42.342Z,58.88
2023-04-13T07:26:44.114Z,59.23
2023-04-13T07:31:45.945Z,58.98
2023-04-13T07:36:47.825Z,58.66
2023-04-13T07:41:53.152Z,59.08
2023-04-13T07:47:03.013Z,59.23
2023-04-13T07:52:06.415Z,59.12
2023-04-13T07:57:10.856Z,58.26
2023-04-13T08:02:18.378Z,58.31
2023-04-13T08:07:23.704Z,57.11
2023-04-13T08:12:25.300Z,56.31
2023-04-13T08:17:28.108Z,55.04
2023-04-13T08:22:29.743Z,55.17
2023-04-13T08:27:31.566Z,55.30
2023-04-13T08:32:33.161Z,55.42
2023-04-13T08:37:35.229Z,55.03
2023-04-13T08:42:38.881Z,54.91
2023-04-13T08:47:41.476Z,54.26
2023-04-13T08:52:43.865Z,53.67
2023-04-13T08:57:51.559Z,52.82
2023-04-13T09:03:04.450Z,52.78
2023-04-13T09:08:08.517Z,52.54
2023-04-13T09:13:13.923Z,51.94
2023-04-13T09:18:16.139Z,51.68
2023-04-13T09:23:24.554Z,51.65
2023-04-13T09:28:26.575Z,52.07
2023-04-13T09:33:28.526Z,51.30
2023-04-13T09:38:31.607Z,51.71
2023-04-13T09:43:37.768Z,51.38
2023-04-13T09:48:40.044Z,51.39
2023-04-13T09:53:43.090Z,51.75
2023-04-13T09:58:46.490Z,52.15
2023-04-13T10:03:48.227Z,51.85
2023-04-13T10:08:49.856Z,51.02
2023-04-13T10:13:54.308Z,51.06
2023-04-13T10:19:14.683Z,51.08
2023-04-13T10:24:16.533Z,50.77
2023-04-13T10:29:30.273Z,50.27
2023-04-13T10:34:34.411Z,49.66
2023-04-13T10:39:36.827Z,49.21
2023-04-13T10:44:51.464Z,49.78
2023-04-13T10:49:53.161Z,49.57
2023-04-13T10:54:55.010Z,49.19
2023-04-13T10:59:59.357Z,48.45
2023-04-13T11:05:02.024Z,48.25
2023-04-13T11:10:04.333Z,48.48
2023-04-13T11:15:06.595Z,47.45
2023-04-13T11:20:11.241Z,48.16
2023-04-13T11:25:13.139Z,48.46
2023-04-13T11:30:14.710Z,49.08
2023-04-13T11:35:17.250Z,48.55
2023-04-13T11:40:22.917Z,48.17
2023-04-13T11:45:29.773Z,47.12
2023-04-13T11:50:32.171Z,47.63
2023-04-13T11:55:49.762Z,48.47
2023-04-13T12:00:59.924Z,48.81
2023-04-13T12:06:04.734Z,49.09
2023-04-13T12:11:38.974Z,48.61
2023-04-13T12:17:01.662Z,48.13
2023-04-13T12:21:56.689Z,47.71
2023-04-13T12:27:17.951Z,47.97
2023-04-13T12:32:20.304Z,47.63
2023-04-13T12:37:21.911Z,48.19
2023-04-13T12:42:23.636Z,48.03
2023-04-13T12:47:25.918Z,48.06
2023-04-13T12:52:29.382Z,48.03
2023-04-13T12:57:31.205Z,47.89
2023-04-13T13:02:32.900Z,48.23
2023-04-13T13:07:34.564Z,48.63
2023-04-13T13:12:36.444Z,48.54
2023-04-13T13:17:41.418Z,48.86
2023-04-13T13:22:43.259Z,48.51
2023-04-13T13:32:49.420Z,48.56
2023-04-13T13:37:51.106Z,48.95
2023-04-13T13:42:53.834Z,48.33
2023-04-13T13:47:57.850Z,48.42
2023-04-13T13:53:26.463Z,48.16
2023-04-13T13:58:28.116Z,48.12
2023-04-13T14:03:29.814Z,48.37
2023-04-13T14:08:31.529Z,48.12
2023-04-13T14:13:33.153Z,48.46
2023-04-13T14:18:34.778Z,48.57
2023-04-13T14:23:37.517Z,48.42
2023-04-13T14:28:39.151Z,48.12
2023-04-13T14:33:42.213Z,48.05
2023-04-13T14:38:44.076Z,47.48
2023-04-13T14:43:45.620Z,47.17
2023-04-13T14:48:47.278Z,47.55
2023-04-13T14:53:49.321Z,47.66
2023-04-13T14:58:51.030Z,47.43
2023-04-13T15:03:53.878Z,46.90
2023-04-13T15:08:55.810Z,47.08
2023-04-13T15:13:57.447Z,47.95
2023-04-13T15:18:59.571Z,47.82
2023-04-13T15:24:01.444Z,47.62
2023-04-13T15:29:03.358Z,47.14
2023-04-13T15:34:08.470Z,47.39
2023-04-13T15:39:10.223Z,47.29
2023-04-13T15:44:11.783Z,47.73
2023-04-13T15:49:13.475Z,48.15
2023-04-13T15:54:15.049Z,48.60
2023-04-13T15:59:16.729Z,48.96
2023-04-13T16:04:18.626Z,48.93
2023-04-13T16:09:20.324Z,49.07
2023-04-13T16:14:22.054Z,49.07
2023-04-13T16:19:23.774Z,49.22
2023-04-13T16:24:26.275Z,49.37
2023-04-13T16:29:28.877Z,49.27
2023-04-13T16:34:30.573Z,49.19
2023-04-13T16:39:32.687Z,49.12
2023-04-13T16:44:34.226Z,49.65
2023-04-13T16:49:35.925Z,50.05
2023-04-13T16:54:42.709Z,50.34
2023-04-13T16:59:44.416Z,50.58
2023-04-13T17:04:46.132Z,50.04
2023-04-13T17:09:47.719Z,50.46
2023-04-13T17:14:52.265Z,50.64
2023-04-13T17:19:54.525Z,50.83
2023-04-13T17:24:56.089Z,51.29
2023-04-13T17:29:57.876Z,51.24
2023-04-13T17:34:59.506Z,51.30
2023-04-13T17:40:01.232Z,51.37
2023-04-13T17:45:03.050Z,52.58
2023-04-13T17:50:05.021Z,52.85
2023-04-13T17:55:07.374Z,53.24
2023-04-13T18:00:09.546Z,53.71
2023-04-13T18:05:15.312Z,53.99
2023-04-13T18:10:16.999Z,54.23
2023-04-13T18:15:18.625Z,54.04
2023-04-13T18:20:20.582Z,54.24
2023-04-13T18:25:22.134Z,54.37
2023-04-13T18:30:23.675Z,54.53
2023-04-13T18:35:25.568Z,55.05
2023-04-13T18:40:27.169Z,55.04
2023-04-13T18:45:28.971Z,55.47
2023-04-13T18:50:30.671Z,55.95
2023-04-13T18:55:32.357Z,55.92
2023-04-13T19:00:33.933Z,55.34
2023-04-13T19:05:35.676Z,55.26
2023-04-13T19:10:37.327Z,55.85
2023-04-13T19:15:39.231Z,55.82
2023-04-13T19:20:40.876Z,55.67
2023-04-13T19:25:42.443Z,56.09
2023-04-13T19:30:44.153Z,56.59
2023-04-13T19:35:45.766Z,57.36
2023-04-13T19:40:47.388Z,57.63
2023-04-13T19:45:48.993Z,58.37
2023-04-13T19:50:50.803Z,59.57
2023-04-13T19:55:52.405Z,59.12
2023-04-13T20:00:54.043Z,58.78
2023-04-13T20:05:58.422Z,59.50
2023-04-13T20:11:00.314Z,58.72
2023-04-13T20:16:02.024Z,58.65
2023-04-13T20:21:03.837Z,58.97
2023-04-13T20:26:05.460Z,59.35
2023-04-13T20:31:08.317Z,59.26
2023-04-13T20:36:09.961Z,59.45
2023-04-13T20:41:13.887Z,59.58
2023-04-13T20:46:16.584Z,60.16
2023-04-13T20:51:19.060Z,60.80
2023-04-13T20:56:23.717Z,61.16
2023-04-13T21:01:25.403Z,61.06
2023-04-13T21:06:29.904Z,61.71
2023-04-13T21:11:31.827Z,61.76
2023-04-13T21:16:33.484Z,61.81
2023-04-13T21:21:35.996Z,62.19
2023-04-13T21:26:37.586Z,61.54
2023-04-13T21:31:39.234Z,61.51
2023-04-13T21:41:48.276Z,62.20
2023-04-13T21:46:49.869Z,62.30
2023-04-13T21:51:51.403Z,62.65
2023-04-13T21:56:52.953Z,63.13
2023-04-13T22:01:54.832Z,63.23
2023-04-13T22:06:56.633Z,63.44
2023-04-13T22:11:58.188Z,63.80
2023-04-13T22:16:59.763Z,64.52
2023-04-13T22:22:01.364Z,63.65
2023-04-13T22:27:03.582Z,63.71
2023-04-13T22:32:05.161Z,63.94
2023-04-13T22:37:06.991Z,64.24
2023-04-13T22:42:08.585Z,64.16
2023-04-13T22:47:10.280Z,63.91
2023-04-13T22:52:13.056Z,64.29
2023-04-13T22:57:14.742Z,64.53
2023-04-13T23:02:16.441Z,64.38
2023-04-13T23:07:18.086Z,64.24
2023-04-13T23:12:19.703Z,64.88
2023-04-13T23:17:21.366Z,65.11
2023-04-13T23:22:23.018Z,64.51
2023-04-13T23:27:25.516Z,64.06
2023-04-13T23:32:27.074Z,64.12
2023-04-13T23:37:28.674Z,64.87
2023-04-13T23:42:30.219Z,64.92
2023-04-13T23:47:32.072Z,64.89
2023-04-13T23:52:34.085Z,66.47
2023-04-13T23:57:35.812Z,64.93
